createdAt,value
2022-12-23T00:16:39.476Z,7.56
2022-12-23T00:46:39.536Z,7.56
2022-12-23T01:16:39.497Z,7.63
2022-12-23T01:46:39.441Z,7.75
2022-12-23T02:16:39.508Z,7.63
2022-12-23T02:46:39.495Z,7.44
2022-12-23T03:16:39.496Z,7.44
2022-12-23T03:46:39.483Z,7.5
2022-12-23T04:16:39.518Z,7.69
2022-12-23T04:46:39.543Z,7.88
2022-12-23T05:16:39.523Z,7.88
2022-12-23T05:46:39.550Z,8.06
2022-12-23T06:16:39.523Z,8.25
2022-12-23T06:46:39.485Z,8.31
2022-12-23T07:16:39.495Z,8.25
2022-12-23T07:46:39.536Z,8.44
2022-12-23T08:16:43.632Z,8.81
2022-12-23T08:46:39.508Z,9.06
2022-12-23T09:16:39.526Z,9.38
2022-12-23T09:46:39.534Z,9.81
2022-12-23T10:16:39.529Z,9.63
2022-12-23T10:46:39.548Z,9.25
2022-12-23T11:16:39.571Z,9.88
2022-12-23T11:46:39.515Z,10.13
2022-12-23T12:16:39.612Z,10.13
2022-12-23T12:46:39.504Z,10.13
2022-12-23T13:16:39.566Z,10
2022-12-23T13:46:39.591Z,9.75
2022-12-23T14:16:39.531Z,9.56
2022-12-23T14:46:39.588Z,9.5
2022-12-23T15:16:39.739Z,9.63
2022-12-23T15:46:39.655Z,9.69
2022-12-23T16:16:39.742Z,9.69
2022-12-23T16:46:39.566Z,9.69
2022-12-23T17:16:39.676Z,9.94
2022-12-23T17:46:39.579Z,10.13
2022-12-23T18:16:39.618Z,10.44
2022-12-23T18:46:39.627Z,10.88
2022-12-23T19:16:39.575Z,11.13
2022-12-23T19:46:39.676Z,10.81
2022-12-23T20:16:39.666Z,10.56
2022-12-23T20:46:39.670Z,10.31
2022-12-23T21:16:39.670Z,10.31
2022-12-23T21:46:39.657Z,9.94
2022-12-23T22:16:39.743Z,9.5
2022-12-23T22:46:39.623Z,9.31
2022-12-23T23:16:39.732Z,9.44
2022-12-23T23:46:39.634Z,9.63
